Time,TemperatureF,DewpointF,PressureIn,WindDirection,WindDirectionDegrees,WindSpeedMPH,WindSpeedGustMPH,Humidity,HourlyPrecipIn,Conditions,Clouds,dailyrainin,SoftwareType,DateUTC
2013-04-04 00:00:00,34.0,14.4,30.23,NW,321,5.0,20.0,44,0.00,,,0.00,meteohub,2013-04-04 04:00:00,
2013-04-04 00:05:00,34.0,14.9,30.23,WNW,287,7.0,20.0,45,0.00,,,0.00,meteohub,2013-04-04 04:05:00,
2013-04-04 00:10:00,33.6,14.5,30.23,WNW,285,3.0,15.0,45,0.00,,,0.00,meteohub,2013-04-04 04:10:00,
2013-04-04 00:15:00,33.6,14.5,30.23,WNW,300,8.0,12.0,45,0.00,,,0.00,meteohub,2013-04-04 04:15:00,
2013-04-04 00:20:00,33.6,14.5,30.23,WNW,302,12.0,13.0,45,0.00,,,0.00,meteohub,2013-04-04 04:20:00,
2013-04-04 00:25:00,33.6,14.5,30.24,NW,304,4.0,20.0,45,0.00,,,0.00,meteohub,2013-04-04 04:25:00,
2013-04-04 00:30:00,33.4,14.9,30.24,WNW,290,7.0,20.0,46,0.00,,,0.00,meteohub,2013-04-04 04:30:00,
2013-04-04 00:35:00,33.4,15.4,30.24,WNW,298,15.0,15.0,47,0.00,,,0.00,meteohub,2013-04-04 04:35:00,
2013-04-04 00:40:00,33.4,15.4,30.24,NW,322,13.0,15.0,47,0.00,,,0.00,meteohub,2013-04-04 04:40:00,
2013-04-04 00:45:00,33.3,15.3,30.24,WNW,302,6.0,18.0,47,0.00,,,0.00,meteohub,2013-04-04 04:45:00,
2013-04-04 00:50:00,33.3,15.3,30.24,WNW,302,8.0,18.0,47,0.00,,,0.00,meteohub,2013-04-04 04:50:00,
2013-04-04 00:55:00,33.3,15.6,30.23,NNW,344,4.0,15.0,48,0.00,,,0.00,meteohub,2013-04-04 04:55:00,
2013-04-04 01:00:00,33.1,15.4,30.23,NW,312,6.0,13.0,48,0.00,,,0.00,meteohub,2013-04-04 05:00:00,
2013-04-04 01:05:00,33.1,15.4,30.23,NW,317,7.0,17.0,48,0.00,,,0.00,meteohub,2013-04-04 05:05:00,
2013-04-04 01:10:00,33.1,15.4,30.23,WNW,290,11.0,17.0,48,0.00,,,0.00,meteohub,2013-04-04 05:10:00,
2013-04-04 01:15:00,33.1,15.4,30.23,NW,312,7.0,17.0,48,0.00,,,0.00,meteohub,2013-04-04 05:15:00,
2013-04-04 01:20:00,32.9,15.8,30.23,NNW,346,4.0,17.0,49,0.00,,,0.00,meteohub,2013-04-04 05:20:00,
2013-04-04 01:25:00,32.9,15.8,30.22,NW,304,10.0,17.0,49,0.00,,,0.00,meteohub,2013-04-04 05:25:00,
2013-04-04 01:30:00,33.1,16.0,30.23,NNW,333,9.0,19.0,49,0.00,,,0.00,meteohub,2013-04-04 05:30:00,
2013-04-04 01:35:00,32.9,15.8,30.23,NW,322,9.0,19.0,49,0.00,,,0.00,meteohub,2013-04-04 05:35:00,
2013-04-04 01:40:00,32.7,15.6,30.23,NW,314,5.0,19.0,49,0.00,,,0.00,meteohub,2013-04-04 05:40:00,
2013-04-04 01:45:00,32.7,16.2,30.23,NW,308,10.0,14.0,50,0.00,,,0.00,meteohub,2013-04-04 05:45:00,
2013-04-04 01:50:00,32.7,16.2,30.23,NW,305,12.0,14.0,50,0.00,,,0.00,meteohub,2013-04-04 05:50:00,
2013-04-04 01:55:00,32.5,16.3,30.23,WNW,288,9.0,14.0,51,0.00,,,0.00,meteohub,2013-04-04 05:55:00,
2013-04-04 02:01:00,32.7,16.5,30.23,WNW,302,8.0,17.0,51,0.00,,,0.00,meteohub,2013-04-04 06:01:00,
2013-04-04 02:06:00,32.5,16.3,30.23,WNW,286,8.0,17.0,51,0.00,,,0.00,meteohub,2013-04-04 06:06:00,
2013-04-04 02:11:00,32.5,16.3,30.23,WNW,298,7.0,15.0,51,0.00,,,0.00,meteohub,2013-04-04 06:11:00,
2013-04-04 02:16:00,32.5,16.3,30.23,WNW,291,6.0,15.0,51,0.00,,,0.00,meteohub,2013-04-04 06:16:00,
2013-04-04 02:21:00,32.5,16.3,30.22,NNW,328,13.0,14.0,51,0.00,,,0.00,meteohub,2013-04-04 06:21:00,
2013-04-04 02:26:00,32.5,16.9,30.22,NW,319,8.0,20.0,52,0.00,,,0.00,meteohub,2013-04-04 06:26:00,
2013-04-04 02:31:00,32.5,16.9,30.23,NW,323,6.0,20.0,52,0.00,,,0.00,meteohub,2013-04-04 06:31:00,
2013-04-04 02:36:00,32.5,16.9,30.23,NW,322,9.0,20.0,52,0.00,,,0.00,meteohub,2013-04-04 06:36:00,
2013-04-04 02:41:00,32.5,16.9,30.23,NNW,338,11.0,18.0,52,0.00,,,0.00,meteohub,2013-04-04 06:41:00,
2013-04-04 02:46:00,32.5,16.9,30.23,NNW,328,6.0,18.0,52,0.00,,,0.00,meteohub,2013-04-04 06:46:00,
2013-04-04 02:51:00,32.4,17.1,30.23,NW,316,7.0,18.0,53,0.00,,,0.00,meteohub,2013-04-04 06:51:00,
2013-04-04 02:57:00,32.4,17.1,30.23,NW,325,8.0,16.0,53,0.00,,,0.00,meteohub,2013-04-04 06:57:00,
2013-04-04 03:02:00,32.4,17.1,30.23,NNW,328,11.0,13.0,53,0.00,,,0.00,meteohub,2013-04-04 07:02:00,
2013-04-04 03:07:00,32.4,17.1,30.22,NNW,343,9.0,15.0,53,0.00,,,0.00,meteohub,2013-04-04 07:07:00,
2013-04-04 03:12:00,32.2,17.4,30.22,NNW,328,6.0,15.0,54,0.00,,,0.00,meteohub,2013-04-04 07:12:00,
2013-04-04 03:17:00,32.2,17.4,30.22,NNW,330,6.0,15.0,54,0.00,,,0.00,meteohub,2013-04-04 07:17:00,
2013-04-04 03:22:00,32.2,17.8,30.23,NNW,328,8.0,14.0,55,0.00,,,0.00,meteohub,2013-04-04 07:22:00,
2013-04-04 03:27:00,32.2,17.8,30.23,NNW,342,3.0,15.0,55,0.00,,,0.00,meteohub,2013-04-04 07:27:00,
2013-04-04 03:32:00,32.2,17.8,30.23,NW,319,7.0,15.0,55,0.00,,,0.00,meteohub,2013-04-04 07:32:00,
2013-04-04 03:37:00,32.2,17.8,30.23,NW,322,3.0,15.0,55,0.00,,,0.00,meteohub,2013-04-04 07:37:00,
2013-04-04 03:42:00,32.0,17.6,30.23,WNW,297,4.0,10.0,55,0.00,,,0.00,meteohub,2013-04-04 07:42:00,
2013-04-04 03:47:00,31.8,17.4,30.22,NNW,333,3.0,10.0,55,0.00,,,0.00,meteohub,2013-04-04 07:47:00,
2013-04-04 03:52:00,31.8,17.4,30.23,NW,305,5.0,9.0,55,0.00,,,0.00,meteohub,2013-04-04 07:52:00,
2013-04-04 03:57:00,31.6,17.8,30.23,NW,322,3.0,7.0,56,0.00,,,0.00,meteohub,2013-04-04 07:57:00,
2013-04-04 04:02:00,31.6,17.8,30.23,NW,321,4.0,7.0,56,0.00,,,0.00,meteohub,2013-04-04 08:02:00,
2013-04-04 04:07:00,31.5,17.6,30.24,NW,314,4.0,8.0,56,0.00,,,0.00,meteohub,2013-04-04 08:07:00,
2013-04-04 04:12:00,31.5,17.6,30.24,NNW,328,3.0,8.0,56,0.00,,,0.00,meteohub,2013-04-04 08:12:00,
2013-04-04 04:17:00,31.5,17.6,30.24,WNW,302,2.0,8.0,56,0.00,,,0.00,meteohub,2013-04-04 08:17:00,
2013-04-04 04:22:00,31.3,17.8,30.25,NW,311,2.0,7.0,57,0.00,,,0.00,meteohub,2013-04-04 08:22:00,
2013-04-04 04:27:00,31.1,17.6,30.25,WNW,290,2.0,7.0,57,0.00,,,0.00,meteohub,2013-04-04 08:27:00,
2013-04-04 04:32:00,30.9,18.0,30.25,WNW,296,1.0,5.0,58,0.00,,,0.00,meteohub,2013-04-04 08:32:00,
2013-04-04 04:37:00,30.7,18.1,30.25,WNW,302,2.0,5.0,59,0.00,,,0.00,meteohub,2013-04-04 08:37:00,
2013-04-04 04:42:00,30.6,18.0,30.25,NW,316,4.0,7.0,59,0.00,,,0.00,meteohub,2013-04-04 08:42:00,
2013-04-04 04:47:00,30.6,18.3,30.26,WNW,283,3.0,7.0,60,0.00,,,0.00,meteohub,2013-04-04 08:47:00,
2013-04-04 04:52:00,30.6,18.3,30.26,WNW,297,3.0,7.0,60,0.00,,,0.00,meteohub,2013-04-04 08:52:00,
2013-04-04 04:57:00,30.4,17.8,30.26,NW,324,3.0,7.0,59,0.00,,,0.00,meteohub,2013-04-04 08:57:00,
2013-04-04 05:02:00,30.6,18.0,30.27,WNW,285,2.0,5.0,59,0.00,,,0.00,meteohub,2013-04-04 09:02:00,
2013-04-04 05:07:00,30.6,18.0,30.27,WNW,302,3.0,5.0,59,0.00,,,0.00,meteohub,2013-04-04 09:07:00,
2013-04-04 05:12:00,30.6,18.0,30.27,NW,305,2.0,5.0,59,0.00,,,0.00,meteohub,2013-04-04 09:12:00,
2013-04-04 05:17:00,30.4,18.1,30.27,NW,308,0.0,4.0,60,0.00,,,0.00,meteohub,2013-04-04 09:17:00,
2013-04-04 05:22:00,30.4,18.1,30.28,West,277,0.0,4.0,60,0.00,,,0.00,meteohub,2013-04-04 09:22:00,
2013-04-04 05:27:00,30.2,18.3,30.29,WSW,249,2.0,4.0,61,0.00,,,0.00,meteohub,2013-04-04 09:27:00,
2013-04-04 05:32:00,30.0,18.5,30.30,WSW,246,3.0,4.0,62,0.00,,,0.00,meteohub,2013-04-04 09:32:00,
2013-04-04 05:37:00,30.0,19.0,30.30,WSW,245,2.0,5.0,63,0.00,,,0.00,meteohub,2013-04-04 09:37:00,
2013-04-04 05:42:00,30.0,19.8,30.30,SSW,212,3.0,5.0,65,0.00,,,0.00,meteohub,2013-04-04 09:42:00,
2013-04-04 05:47:00,30.0,19.4,30.30,SW,225,4.0,5.0,64,0.00,,,0.00,meteohub,2013-04-04 09:47:00,
2013-04-04 05:52:00,29.7,19.0,30.30,WSW,239,3.0,5.0,64,0.00,,,0.00,meteohub,2013-04-04 09:52:00,
2013-04-04 05:58:00,29.5,18.5,30.31,SW,226,3.0,5.0,63,0.00,,,0.00,meteohub,2013-04-04 09:58:00,
2013-04-04 06:03:00,29.5,18.9,30.31,SW,214,2.0,5.0,64,0.00,,,0.00,meteohub,2013-04-04 10:03:00,
2013-04-04 06:08:00,29.5,19.2,30.31,SW,218,4.0,5.0,65,0.00,,,0.00,meteohub,2013-04-04 10:08:00,
2013-04-04 06:13:00,29.5,18.9,30.32,SW,235,2.0,6.0,64,0.00,,,0.00,meteohub,2013-04-04 10:13:00,
2013-04-04 06:18:00,29.5,19.2,30.32,SSW,212,3.0,6.0,65,0.00,,,0.00,meteohub,2013-04-04 10:18:00,
2013-04-04 06:23:00,29.3,18.7,30.32,SW,226,2.0,6.0,64,0.00,,,0.00,meteohub,2013-04-04 10:23:00,
2013-04-04 06:28:00,29.7,20.7,30.32,SW,233,0.0,5.0,69,0.00,,,0.00,meteohub,2013-04-04 10:28:00,
2013-04-04 06:33:00,29.7,19.4,30.32,SW,221,0.0,4.0,65,0.00,,,0.00,meteohub,2013-04-04 10:33:00,
2013-04-04 06:38:00,29.5,18.9,30.33,WSW,257,1.0,4.0,64,0.00,,,0.00,meteohub,2013-04-04 10:38:00,
2013-04-04 06:43:00,29.5,18.9,30.33,SW,235,3.0,5.0,64,0.00,,,0.00,meteohub,2013-04-04 10:43:00,
2013-04-04 06:48:00,29.7,18.7,30.34,WNW,286,5.0,5.0,63,0.00,,,0.00,meteohub,2013-04-04 10:48:00,
2013-04-04 06:53:00,29.8,18.9,30.34,West,278,1.0,6.0,63,0.00,,,0.00,meteohub,2013-04-04 10:53:00,
2013-04-04 06:58:00,30.4,18.9,30.34,WSW,253,3.0,6.0,62,0.00,,,0.00,meteohub,2013-04-04 10:58:00,
2013-04-04 07:03:00,30.6,19.0,30.35,West,266,4.0,6.0,62,0.00,,,0.00,meteohub,2013-04-04 11:03:00,
2013-04-04 07:08:00,30.7,18.9,30.35,WSW,249,1.0,6.0,61,0.00,,,0.00,meteohub,2013-04-04 11:08:00,
2013-04-04 07:13:00,30.9,19.0,30.34,West,276,0.0,6.0,61,0.00,,,0.00,meteohub,2013-04-04 11:13:00,
2013-04-04 07:18:00,31.3,19.4,30.35,West,274,2.0,6.0,61,0.00,,,0.00,meteohub,2013-04-04 11:18:00,
2013-04-04 07:23:00,31.5,19.2,30.35,NW,315,3.0,6.0,60,0.00,,,0.00,meteohub,2013-04-04 11:23:00,
2013-04-04 07:28:00,31.6,19.4,30.35,West,278,2.0,5.0,60,0.00,,,0.00,meteohub,2013-04-04 11:28:00,
2013-04-04 07:33:00,32.0,19.8,30.35,WNW,290,10.0,10.0,60,0.00,,,0.00,meteohub,2013-04-04 11:33:00,
2013-04-04 07:38:00,32.2,19.4,30.35,WNW,290,4.0,10.0,59,0.00,,,0.00,meteohub,2013-04-04 11:38:00,
2013-04-04 07:43:00,32.4,19.6,30.35,WSW,238,6.0,10.0,59,0.00,,,0.00,meteohub,2013-04-04 11:43:00,
2013-04-04 07:48:00,32.7,20.3,30.35,West,280,7.0,10.0,60,0.00,,,0.00,meteohub,2013-04-04 11:48:00,
2013-04-04 07:53:00,33.1,20.3,30.35,West,274,4.0,8.0,59,0.00,,,0.00,meteohub,2013-04-04 11:53:00,
2013-04-04 07:59:00,33.3,20.5,30.36,WNW,297,7.0,8.0,59,0.00,,,0.00,meteohub,2013-04-04 11:59:00,
2013-04-04 08:04:00,33.8,21.0,30.36,NW,316,5.0,10.0,59,0.00,,,0.00,meteohub,2013-04-04 12:04:00,
2013-04-04 08:09:00,34.2,20.8,30.36,WNW,293,14.0,14.0,58,0.00,,,0.00,meteohub,2013-04-04 12:09:00,
2013-04-04 08:14:00,34.2,20.5,30.36,NW,319,13.0,13.0,57,0.00,,,0.00,meteohub,2013-04-04 12:14:00,
2013-04-04 08:19:00,34.7,21.0,30.36,NNW,330,4.0,14.0,57,0.00,,,0.00,meteohub,2013-04-04 12:19:00,
2013-04-04 08:24:00,34.9,20.8,30.36,WNW,290,7.0,14.0,56,0.00,,,0.00,meteohub,2013-04-04 12:24:00,
2013-04-04 08:29:00,35.1,21.0,30.36,WNW,302,11.0,14.0,56,0.00,,,0.00,meteohub,2013-04-04 12:29:00,
2013-04-04 08:34:00,35.1,20.5,30.36,WNW,288,8.0,13.0,55,0.00,,,0.00,meteohub,2013-04-04 12:34:00,
2013-04-04 08:39:00,35.2,20.7,30.36,WNW,284,5.0,17.0,55,0.00,,,0.00,meteohub,2013-04-04 12:39:00,
2013-04-04 08:44:00,35.2,20.3,30.36,West,270,5.0,17.0,54,0.00,,,0.00,meteohub,2013-04-04 12:44:00,
2013-04-04 08:49:00,35.4,20.5,30.36,WNW,293,6.0,17.0,54,0.00,,,0.00,meteohub,2013-04-04 12:49:00,
2013-04-04 08:55:00,35.6,20.7,30.36,WNW,298,7.0,15.0,54,0.00,,,0.00,meteohub,2013-04-04 12:55:00,
2013-04-04 09:00:00,36.0,20.5,30.35,WNW,294,11.0,15.0,53,0.00,,,0.00,meteohub,2013-04-04 13:00:00,
2013-04-04 09:05:00,35.8,19.9,30.35,NW,326,7.0,13.0,52,0.00,,,0.00,meteohub,2013-04-04 13:05:00,
2013-04-04 09:10:00,36.0,20.1,30.35,West,281,6.0,17.0,52,0.00,,,0.00,meteohub,2013-04-04 13:10:00,
2013-04-04 09:15:00,36.1,19.8,30.35,WNW,297,5.0,17.0,51,0.00,,,0.00,meteohub,2013-04-04 13:15:00,
2013-04-04 09:20:00,36.3,20.3,30.35,West,259,8.0,14.0,52,0.00,,,0.00,meteohub,2013-04-04 13:20:00,
2013-04-04 09:25:00,36.7,20.3,30.35,West,259,5.0,14.0,51,0.00,,,0.00,meteohub,2013-04-04 13:25:00,
2013-04-04 09:30:00,37.2,20.3,30.34,West,271,6.0,11.0,50,0.00,,,0.00,meteohub,2013-04-04 13:30:00,
2013-04-04 09:35:00,36.9,19.4,30.34,WSW,253,0.0,11.0,49,0.00,,,0.00,meteohub,2013-04-04 13:35:00,
2013-04-04 09:40:00,37.0,20.1,30.34,WNW,298,4.0,11.0,50,0.00,,,0.00,meteohub,2013-04-04 13:40:00,
2013-04-04 09:45:00,37.4,19.9,30.34,West,269,2.0,11.0,49,0.00,,,0.00,meteohub,2013-04-04 13:45:00,
2013-04-04 09:50:00,37.6,20.7,30.34,SW,219,4.0,10.0,50,0.00,,,0.00,meteohub,2013-04-04 13:50:00,
2013-04-04 09:55:00,37.9,19.6,30.34,West,263,0.0,9.0,47,0.00,,,0.00,meteohub,2013-04-04 13:55:00,
2013-04-04 10:00:00,38.3,19.4,30.34,West,279,6.0,10.0,46,0.00,,,0.00,meteohub,2013-04-04 14:00:00,
2013-04-04 10:05:00,38.5,19.9,30.33,South,178,4.0,11.0,47,0.00,,,0.00,meteohub,2013-04-04 14:05:00,
2013-04-04 10:10:00,39.4,20.3,30.33,West,281,4.0,11.0,46,0.00,,,0.00,meteohub,2013-04-04 14:10:00,
2013-04-04 10:15:00,39.6,19.9,30.33,West,279,2.0,10.0,45,0.00,,,0.00,meteohub,2013-04-04 14:15:00,
2013-04-04 10:20:00,39.6,18.9,30.33,South,191,3.0,9.0,43,0.00,,,0.00,meteohub,2013-04-04 14:20:00,
2013-04-04 10:25:00,40.1,19.9,30.33,WNW,287,5.0,8.0,44,0.00,,,0.00,meteohub,2013-04-04 14:25:00,
2013-04-04 10:30:00,40.5,19.2,30.32,WNW,283,7.0,9.0,42,0.00,,,0.00,meteohub,2013-04-04 14:30:00,
2013-04-04 10:35:00,41.2,18.7,30.32,West,273,3.0,9.0,40,0.00,,,0.00,meteohub,2013-04-04 14:35:00,
2013-04-04 10:40:00,41.2,18.1,30.32,SSW,204,1.0,11.0,39,0.00,,,0.00,meteohub,2013-04-04 14:40:00,
2013-04-04 10:45:00,41.0,19.0,30.32,SSW,194,3.0,11.0,41,0.00,,,0.00,meteohub,2013-04-04 14:45:00,
2013-04-04 10:50:00,40.6,25.7,30.31,South,188,9.0,14.0,55,0.00,,,0.00,meteohub,2013-04-04 14:50:00,
2013-04-04 10:55:00,39.9,25.0,30.31,South,191,12.0,14.0,55,0.00,,,0.00,meteohub,2013-04-04 14:55:00,
2013-04-04 11:01:00,39.6,26.1,30.31,SSW,198,12.0,15.0,58,0.00,,,0.00,meteohub,2013-04-04 15:01:00,
2013-04-04 11:06:00,39.6,27.1,30.31,SSW,200,10.0,17.0,61,0.00,,,0.00,meteohub,2013-04-04 15:06:00,
2013-04-04 11:11:00,39.6,26.8,30.30,South,177,10.0,17.0,60,0.00,,,0.00,meteohub,2013-04-04 15:11:00,
2013-04-04 11:16:00,39.9,26.8,30.30,SSW,193,10.0,16.0,59,0.00,,,0.00,meteohub,2013-04-04 15:16:00,
2013-04-04 11:21:00,40.3,27.1,30.30,South,172,11.0,16.0,59,0.00,,,0.00,meteohub,2013-04-04 15:21:00,
2013-04-04 11:26:00,40.5,26.1,30.30,South,174,11.0,16.0,56,0.00,,,0.00,meteohub,2013-04-04 15:26:00,
2013-04-04 11:31:00,40.5,27.3,30.30,SSW,196,11.0,15.0,59,0.00,,,0.00,meteohub,2013-04-04 15:31:00,
2013-04-04 11:36:00,40.3,26.6,30.30,SSW,198,12.0,17.0,58,0.00,,,0.00,meteohub,2013-04-04 15:36:00,
2013-04-04 11:41:00,40.5,26.4,30.30,SW,215,10.0,17.0,57,0.00,,,0.00,meteohub,2013-04-04 15:41:00,
2013-04-04 11:47:00,40.5,26.1,30.30,SW,214,15.0,18.0,56,0.00,,,0.00,meteohub,2013-04-04 15:47:00,
2013-04-04 11:52:00,40.5,27.7,30.30,SSW,195,18.0,19.0,60,0.00,,,0.00,meteohub,2013-04-04 15:52:00,
2013-04-04 11:57:00,40.5,26.1,30.30,SSW,204,9.0,19.0,56,0.00,,,0.00,meteohub,2013-04-04 15:57:00,
2013-04-04 12:02:00,40.8,27.1,30.29,SW,215,13.0,20.0,58,0.00,,,0.00,meteohub,2013-04-04 16:02:00,
2013-04-04 12:07:00,40.8,26.8,30.29,SSW,205,14.0,20.0,57,0.00,,,0.00,meteohub,2013-04-04 16:07:00,
2013-04-04 12:12:00,40.6,26.6,30.29,South,191,12.0,20.0,57,0.00,,,0.00,meteohub,2013-04-04 16:12:00,
2013-04-04 12:17:00,40.6,26.6,30.29,South,187,9.0,21.0,57,0.00,,,0.00,meteohub,2013-04-04 16:17:00,
2013-04-04 12:22:00,40.3,26.6,30.29,South,184,16.0,24.0,58,0.00,,,0.00,meteohub,2013-04-04 16:22:00,
2013-04-04 12:27:00,40.3,26.2,30.29,SSW,198,21.0,24.0,57,0.00,,,0.00,meteohub,2013-04-04 16:27:00,
2013-04-04 12:32:00,40.3,26.6,30.29,SSW,201,23.0,27.0,58,0.00,,,0.00,meteohub,2013-04-04 16:32:00,
2013-04-04 12:37:00,40.1,27.3,30.29,SW,215,24.0,29.0,60,0.00,,,0.00,meteohub,2013-04-04 16:37:00,
2013-04-04 12:42:00,39.9,26.8,30.29,South,191,25.0,29.0,59,0.00,,,0.00,meteohub,2013-04-04 16:42:00,
2013-04-04 12:47:00,39.9,26.8,30.29,South,170,21.0,29.0,59,0.00,,,0.00,meteohub,2013-04-04 16:47:00,
2013-04-04 12:52:00,40.5,27.3,30.29,SW,231,22.0,29.0,59,0.00,,,0.00,meteohub,2013-04-04 16:52:00,
2013-04-04 12:57:00,40.6,26.2,30.28,SSW,210,12.0,29.0,56,0.00,,,0.00,meteohub,2013-04-04 16:57:00,
2013-04-04 13:02:00,40.8,25.9,30.28,West,260,8.0,28.0,55,0.00,,,0.00,meteohub,2013-04-04 17:02:00,
2013-04-04 13:07:00,41.5,28.2,30.27,SSW,198,17.0,24.0,59,0.00,,,0.00,meteohub,2013-04-04 17:07:00,
2013-04-04 13:12:00,41.4,28.0,30.27,SW,217,10.0,24.0,59,0.00,,,0.00,meteohub,2013-04-04 17:12:00,
2013-04-04 13:17:00,41.4,27.7,30.27,SSW,201,14.0,21.0,58,0.00,,,0.00,meteohub,2013-04-04 17:17:00,
2013-04-04 13:22:00,41.7,25.9,30.27,WSW,245,13.0,21.0,53,0.00,,,0.00,meteohub,2013-04-04 17:22:00,
2013-04-04 13:28:00,41.5,25.2,30.27,SSW,212,14.0,20.0,52,0.00,,,0.00,meteohub,2013-04-04 17:28:00,
2013-04-04 13:33:00,42.1,25.7,30.28,SSW,194,11.0,21.0,52,0.00,,,0.00,meteohub,2013-04-04 17:33:00,
2013-04-04 13:38:00,42.3,26.8,30.27,SW,231,13.0,21.0,54,0.00,,,0.00,meteohub,2013-04-04 17:38:00,
2013-04-04 13:43:00,42.3,26.4,30.27,South,181,15.0,22.0,53,0.00,,,0.00,meteohub,2013-04-04 17:43:00,
2013-04-04 13:48:00,43.0,25.2,30.27,SW,217,8.0,26.0,49,0.00,,,0.00,meteohub,2013-04-04 17:48:00,
2013-04-04 13:53:00,43.3,25.5,30.26,SW,224,12.0,26.0,49,0.00,,,0.00,meteohub,2013-04-04 17:53:00,
2013-04-04 13:58:00,43.3,25.0,30.26,SSW,212,11.0,26.0,48,0.00,,,0.00,meteohub,2013-04-04 17:58:00,
2013-04-04 14:03:00,43.2,26.2,30.26,South,183,15.0,19.0,51,0.00,,,0.00,meteohub,2013-04-04 18:03:00,
2013-04-04 14:08:00,43.3,25.9,30.26,SW,218,8.0,20.0,50,0.00,,,0.00,meteohub,2013-04-04 18:08:00,
2013-04-04 14:13:00,43.2,24.8,30.26,SSW,210,18.0,21.0,48,0.00,,,0.00,meteohub,2013-04-04 18:13:00,
2013-04-04 14:18:00,43.3,24.4,30.25,SSW,208,7.0,22.0,47,0.00,,,0.00,meteohub,2013-04-04 18:18:00,
2013-04-04 14:23:00,43.9,22.8,30.25,SW,226,14.0,22.0,43,0.00,,,0.00,meteohub,2013-04-04 18:23:00,
2013-04-04 14:28:00,43.9,22.3,30.25,SSW,200,15.0,22.0,42,0.00,,,0.00,meteohub,2013-04-04 18:28:00,
2013-04-04 14:33:00,43.5,24.6,30.25,SSW,204,14.0,21.0,47,0.00,,,0.00,meteohub,2013-04-04 18:33:00,
2013-04-04 14:38:00,43.7,23.2,30.25,WSW,239,18.0,23.0,44,0.00,,,0.00,meteohub,2013-04-04 18:38:00,
2013-04-04 14:43:00,43.5,21.4,30.24,SW,219,13.0,23.0,41,0.00,,,0.00,meteohub,2013-04-04 18:43:00,
2013-04-04 14:48:00,43.7,22.6,30.23,SSW,211,17.0,24.0,43,0.00,,,0.00,meteohub,2013-04-04 18:48:00,
2013-04-04 14:53:00,43.5,23.0,30.23,SSW,193,15.0,24.0,44,0.00,,,0.00,meteohub,2013-04-04 18:53:00,
2013-04-04 14:58:00,43.2,22.6,30.23,SW,222,20.0,24.0,44,0.00,,,0.00,meteohub,2013-04-04 18:58:00,
2013-04-04 15:04:00,43.2,23.7,30.23,SSW,210,18.0,24.0,46,0.00,,,0.00,meteohub,2013-04-04 19:04:00,
2013-04-04 15:09:00,43.3,25.9,30.22,SSW,203,18.0,24.0,50,0.00,,,0.00,meteohub,2013-04-04 19:09:00,
2013-04-04 15:14:00,43.3,27.3,30.22,SSW,198,16.0,22.0,53,0.00,,,0.00,meteohub,2013-04-04 19:14:00,
2013-04-04 15:19:00,43.9,25.5,30.23,SW,231,12.0,22.0,48,0.00,,,0.00,meteohub,2013-04-04 19:19:00,
2013-04-04 15:24:00,44.1,26.1,30.22,South,190,20.0,20.0,49,0.00,,,0.00,meteohub,2013-04-04 19:24:00,
2013-04-04 15:29:00,43.3,25.5,30.22,SW,217,26.0,26.0,49,0.00,,,0.00,meteohub,2013-04-04 19:29:00,
2013-04-04 15:35:00,43.2,27.1,30.22,SSW,198,17.0,26.0,53,0.00,,,0.00,meteohub,2013-04-04 19:35:00,
2013-04-04 15:40:00,43.0,26.6,30.22,SSW,194,19.0,26.0,52,0.00,,,0.00,meteohub,2013-04-04 19:40:00,
2013-04-04 15:45:00,42.8,28.2,30.22,SW,222,14.0,27.0,56,0.00,,,0.00,meteohub,2013-04-04 19:45:00,
2013-04-04 15:50:00,42.6,28.0,30.21,SSW,208,12.0,27.0,56,0.00,,,0.00,meteohub,2013-04-04 19:50:00,
2013-04-04 15:55:00,42.8,27.3,30.21,SW,224,20.0,27.0,54,0.00,,,0.00,meteohub,2013-04-04 19:55:00,
2013-04-04 16:00:00,43.2,25.3,30.21,SSW,201,12.0,23.0,49,0.00,,,0.00,meteohub,2013-04-04 20:00:00,
2013-04-04 16:05:00,43.5,27.1,30.21,SW,217,20.0,23.0,52,0.00,,,0.00,meteohub,2013-04-04 20:05:00,
2013-04-04 16:10:00,43.0,27.0,30.21,SSW,207,16.0,22.0,53,0.00,,,0.00,meteohub,2013-04-04 20:10:00,
2013-04-04 16:15:00,42.8,27.3,30.21,SW,228,12.0,26.0,54,0.00,,,0.00,meteohub,2013-04-04 20:15:00,
2013-04-04 16:20:00,42.8,29.1,30.21,SSW,203,11.0,26.0,58,0.00,,,0.00,meteohub,2013-04-04 20:20:00,
2013-04-04 16:25:00,43.0,30.0,30.20,WSW,249,11.0,19.0,60,0.00,,,0.00,meteohub,2013-04-04 20:25:00,
2013-04-04 16:30:00,42.8,30.2,30.20,West,278,10.0,21.0,61,0.00,,,0.00,meteohub,2013-04-04 20:30:00,
2013-04-04 16:35:00,42.6,32.0,30.20,SSW,205,20.0,21.0,66,0.00,,,0.00,meteohub,2013-04-04 20:35:00,
2013-04-04 16:40:00,41.9,31.8,30.20,SSW,210,18.0,26.0,67,0.00,,,0.00,meteohub,2013-04-04 20:40:00,
2013-04-04 16:45:00,41.9,31.8,30.20,South,191,12.0,26.0,67,0.00,,,0.00,meteohub,2013-04-04 20:45:00,
2013-04-04 16:50:00,41.9,30.9,30.19,SW,230,9.0,26.0,65,0.00,,,0.00,meteohub,2013-04-04 20:50:00,
2013-04-04 16:55:00,42.3,30.9,30.19,SSW,193,11.0,22.0,64,0.00,,,0.00,meteohub,2013-04-04 20:55:00,
2013-04-04 17:00:00,42.3,32.5,30.19,SSW,200,12.0,20.0,68,0.00,,,0.00,meteohub,2013-04-04 21:00:00,
2013-04-04 17:05:00,41.7,33.1,30.18,SSW,195,14.0,20.0,71,0.00,,,0.00,meteohub,2013-04-04 21:05:00,
2013-04-04 17:10:00,41.9,32.9,30.19,SSW,210,10.0,19.0,70,0.00,,,0.00,meteohub,2013-04-04 21:10:00,
2013-04-04 17:15:00,42.1,33.8,30.19,SSW,207,14.0,19.0,72,0.00,,,0.00,meteohub,2013-04-04 21:15:00,
2013-04-04 17:20:00,41.9,32.2,30.19,SW,225,18.0,21.0,68,0.00,,,0.00,meteohub,2013-04-04 21:20:00,
2013-04-04 17:25:00,41.7,33.1,30.19,SSW,193,20.0,23.0,71,0.00,,,0.00,meteohub,2013-04-04 21:25:00,
2013-04-04 17:30:00,41.5,33.3,30.19,SSW,210,15.0,23.0,72,0.00,,,0.00,meteohub,2013-04-04 21:30:00,
2013-04-04 17:35:00,41.7,32.7,30.19,SSW,193,13.0,23.0,70,0.00,,,0.00,meteohub,2013-04-04 21:35:00,
2013-04-04 17:40:00,41.7,32.0,30.19,SW,222,13.0,22.0,68,0.00,,,0.00,meteohub,2013-04-04 21:40:00,
2013-04-04 17:45:00,41.5,31.8,30.19,SSW,204,15.0,21.0,68,0.00,,,0.00,meteohub,2013-04-04 21:45:00,
2013-04-04 17:50:00,41.4,29.7,30.19,SSW,210,8.0,21.0,63,0.00,,,0.00,meteohub,2013-04-04 21:50:00,
2013-04-04 17:55:00,41.4,30.6,30.19,SW,232,15.0,25.0,65,0.00,,,0.00,meteohub,2013-04-04 21:55:00,
2013-04-04 18:00:00,41.0,28.9,30.19,SSW,207,15.0,25.0,62,0.00,,,0.00,meteohub,2013-04-04 22:00:00,
2013-04-04 18:05:00,40.6,27.0,30.18,SSW,212,17.0,22.0,58,0.00,,,0.00,meteohub,2013-04-04 22:05:00,
2013-04-04 18:10:00,40.5,26.8,30.18,SW,214,9.0,22.0,58,0.00,,,0.00,meteohub,2013-04-04 22:10:00,
2013-04-04 18:16:00,40.1,29.3,30.18,SW,217,18.0,23.0,65,0.00,,,0.00,meteohub,2013-04-04 22:16:00,
2013-04-04 18:21:00,39.9,30.9,30.18,SW,219,16.0,23.0,70,0.00,,,0.00,meteohub,2013-04-04 22:21:00,
2013-04-04 18:27:00,39.7,32.2,30.18,SSW,195,14.0,23.0,74,0.00,,,0.00,meteohub,2013-04-04 22:27:00,
2013-04-04 18:32:00,39.7,32.2,30.18,WSW,257,15.0,21.0,74,0.00,,,0.00,meteohub,2013-04-04 22:32:00,
2013-04-04 18:37:00,39.6,32.4,30.19,SW,222,9.0,21.0,75,0.00,,,0.00,meteohub,2013-04-04 22:37:00,
2013-04-04 18:42:00,39.6,32.4,30.19,SW,235,7.0,21.0,75,0.00,,,0.00,meteohub,2013-04-04 22:42:00,
2013-04-04 18:47:00,39.4,32.2,30.18,SSW,211,14.0,16.0,75,0.00,,,0.00,meteohub,2013-04-04 22:47:00,
2013-04-04 18:52:00,39.2,31.6,30.18,SSW,212,17.0,22.0,74,0.00,,,0.00,meteohub,2013-04-04 22:52:00,
2013-04-04 18:57:00,39.2,32.0,30.18,SW,219,14.0,23.0,75,0.00,,,0.00,meteohub,2013-04-04 22:57:00,
2013-04-04 19:02:00,39.0,32.2,30.18,SW,214,15.0,23.0,76,0.00,,,0.00,meteohub,2013-04-04 23:02:00,
2013-04-04 19:07:00,39.0,31.8,30.18,SW,219,14.0,21.0,75,0.00,,,0.00,meteohub,2013-04-04 23:07:00,
2013-04-04 19:12:00,39.0,32.2,30.19,SW,214,13.0,18.0,76,0.00,,,0.00,meteohub,2013-04-04 23:12:00,
2013-04-04 19:17:00,39.0,32.2,30.19,SW,222,12.0,20.0,76,0.00,,,0.00,meteohub,2013-04-04 23:17:00,
2013-04-04 19:22:00,38.8,32.0,30.19,SW,215,10.0,20.0,76,0.00,,,0.00,meteohub,2013-04-04 23:22:00,
2013-04-04 19:27:00,38.8,32.5,30.19,WSW,242,8.0,20.0,78,0.00,,,0.00,meteohub,2013-04-04 23:27:00,
2013-04-04 19:32:00,38.8,32.2,30.19,SW,222,8.0,20.0,77,0.00,,,0.00,meteohub,2013-04-04 23:32:00,
2013-04-04 19:37:00,38.8,32.2,30.19,SSW,210,4.0,19.0,77,0.00,,,0.00,meteohub,2013-04-04 23:37:00,
2013-04-04 19:42:00,38.8,32.2,30.19,SW,233,8.0,22.0,77,0.00,,,0.00,meteohub,2013-04-04 23:42:00,
2013-04-04 19:47:00,38.7,32.4,30.19,SSW,212,6.0,22.0,78,0.00,,,0.00,meteohub,2013-04-04 23:47:00,
2013-04-04 19:52:00,38.7,32.0,30.19,West,260,5.0,22.0,77,0.00,,,0.00,meteohub,2013-04-04 23:52:00,
2013-04-04 19:57:00,38.7,32.0,30.19,SW,225,11.0,17.0,77,0.00,,,0.00,meteohub,2013-04-04 23:57:00,
2013-04-04 20:02:00,38.8,32.2,30.19,SW,217,11.0,19.0,77,0.00,,,0.00,meteohub,2013-04-05 00:02:00,
2013-04-04 20:07:00,38.8,32.2,30.19,SW,233,15.0,20.0,77,0.00,,,0.00,meteohub,2013-04-05 00:07:00,
2013-04-04 20:12:00,38.8,32.5,30.19,SW,232,6.0,20.0,78,0.00,,,0.00,meteohub,2013-04-05 00:12:00,
2013-04-04 20:17:00,38.8,32.5,30.19,SW,219,11.0,20.0,78,0.00,,,0.00,meteohub,2013-04-05 00:17:00,
2013-04-04 20:22:00,39.0,33.1,30.19,SW,229,11.0,20.0,79,0.00,,,0.00,meteohub,2013-04-05 00:22:00,
2013-04-04 20:27:00,39.0,33.1,30.19,WSW,242,11.0,18.0,79,0.00,,,0.00,meteohub,2013-04-05 00:27:00,
2013-04-04 20:32:00,39.0,33.1,30.19,SSW,212,8.0,18.0,79,0.00,,,0.00,meteohub,2013-04-05 00:32:00,
2013-04-04 20:37:00,39.0,33.1,30.19,SW,214,13.0,19.0,79,0.00,,,0.00,meteohub,2013-04-05 00:37:00,
2013-04-04 20:42:00,39.0,33.1,30.18,WSW,240,7.0,19.0,79,0.00,,,0.00,meteohub,2013-04-05 00:42:00,
2013-04-04 20:47:00,39.0,33.1,30.19,SW,229,6.0,19.0,79,0.00,,,0.00,meteohub,2013-04-05 00:47:00,
2013-04-04 20:52:00,38.8,32.9,30.18,SW,215,12.0,19.0,79,0.00,,,0.00,meteohub,2013-04-05 00:52:00,
2013-04-04 20:57:00,39.0,33.4,30.18,SW,224,9.0,18.0,80,0.00,,,0.00,meteohub,2013-04-05 00:57:00,
2013-04-04 21:02:00,39.0,33.4,30.19,SW,229,10.0,18.0,80,0.00,,,0.00,meteohub,2013-04-05 01:02:00,
2013-04-04 21:08:00,39.0,33.6,30.19,SW,235,11.0,19.0,81,0.00,,,0.00,meteohub,2013-04-05 01:08:00,
2013-04-04 21:13:00,39.2,33.6,30.18,SW,233,7.0,19.0,80,0.00,,,0.00,meteohub,2013-04-05 01:13:00,
2013-04-04 21:18:00,39.2,33.8,30.18,SSW,212,15.0,19.0,81,0.00,,,0.00,meteohub,2013-04-05 01:18:00,
2013-04-04 21:23:00,39.4,34.0,30.18,SSW,210,12.0,19.0,81,0.00,,,0.00,meteohub,2013-04-05 01:23:00,
2013-04-04 21:28:00,39.4,34.0,30.18,SSW,210,15.0,20.0,81,0.00,,,0.00,meteohub,2013-04-05 01:28:00,
2013-04-04 21:33:00,39.4,34.0,30.18,SW,216,16.0,21.0,81,0.00,,,0.00,meteohub,2013-04-05 01:33:00,
2013-04-04 21:38:00,39.4,34.0,30.18,SSW,200,11.0,21.0,81,0.00,,,0.00,meteohub,2013-04-05 01:38:00,
2013-04-04 21:43:00,39.4,34.3,30.17,SSW,212,11.0,21.0,82,0.00,,,0.00,meteohub,2013-04-05 01:43:00,
2013-04-04 21:48:00,39.2,33.8,30.17,WSW,245,13.0,20.0,81,0.00,,,0.00,meteohub,2013-04-05 01:48:00,
2013-04-04 21:53:00,39.4,34.3,30.17,SW,218,10.0,18.0,82,0.00,,,0.00,meteohub,2013-04-05 01:53:00,
2013-04-04 21:58:00,39.4,34.3,30.17,WSW,238,14.0,18.0,82,0.00,,,0.00,meteohub,2013-04-05 01:58:00,
2013-04-04 22:03:00,39.4,34.3,30.17,WSW,239,13.0,19.0,82,0.00,,,0.00,meteohub,2013-04-05 02:03:00,
2013-04-04 22:08:00,39.4,34.3,30.17,South,188,12.0,19.0,82,0.00,,,0.00,meteohub,2013-04-05 02:08:00,
2013-04-04 22:13:00,39.4,34.7,30.17,SSW,211,11.0,19.0,83,0.00,,,0.00,meteohub,2013-04-05 02:13:00,
2013-04-04 22:18:00,39.4,34.7,30.17,SSW,212,11.0,17.0,83,0.00,,,0.00,meteohub,2013-04-05 02:18:00,
2013-04-04 22:23:00,39.4,34.7,30.16,SW,235,13.0,17.0,83,0.00,,,0.00,meteohub,2013-04-05 02:23:00,
2013-04-04 22:28:00,39.4,34.9,30.16,SSW,211,8.0,17.0,84,0.00,,,0.00,meteohub,2013-04-05 02:28:00,
2013-04-04 22:33:00,39.6,35.1,30.16,SSW,204,9.0,17.0,84,0.00,,,0.00,meteohub,2013-04-05 02:33:00,
2013-04-04 22:38:00,39.6,34.9,30.15,SSW,212,5.0,17.0,83,0.00,,,0.00,meteohub,2013-04-05 02:38:00,
2013-04-04 22:43:00,39.6,35.1,30.15,SSW,194,15.0,17.0,84,0.00,,,0.00,meteohub,2013-04-05 02:43:00,
2013-04-04 22:48:00,39.6,34.9,30.15,SSW,203,11.0,18.0,83,0.00,,,0.00,meteohub,2013-04-05 02:48:00,
2013-04-04 22:53:00,39.6,35.1,30.14,South,184,5.0,18.0,84,0.00,,,0.00,meteohub,2013-04-05 02:53:00,
2013-04-04 22:58:00,39.6,35.1,30.14,SSW,207,11.0,18.0,84,0.00,,,0.00,meteohub,2013-04-05 02:58:00,
2013-04-04 23:04:00,39.6,35.1,30.14,SSW,208,9.0,16.0,84,0.00,,,0.00,meteohub,2013-04-05 03:04:00,
2013-04-04 23:09:00,39.6,35.1,30.14,SSW,207,7.0,18.0,84,0.00,,,0.00,meteohub,2013-04-05 03:09:00,
2013-04-04 23:14:00,39.6,35.1,30.14,SW,214,12.0,18.0,84,0.00,,,0.00,meteohub,2013-04-05 03:14:00,
2013-04-04 23:19:00,39.6,35.1,30.14,SSW,208,6.0,18.0,84,0.00,,,0.00,meteohub,2013-04-05 03:19:00,
2013-04-04 23:24:00,39.6,35.1,30.14,SW,218,9.0,18.0,84,0.00,,,0.00,meteohub,2013-04-05 03:24:00,
2013-04-04 23:29:00,39.6,35.1,30.13,SW,228,9.0,20.0,84,0.00,,,0.00,meteohub,2013-04-05 03:29:00,
2013-04-04 23:34:00,39.6,35.4,30.13,SSW,210,7.0,20.0,85,0.00,,,0.00,meteohub,2013-04-05 03:34:00,
2013-04-04 23:39:00,39.6,35.1,30.13,SW,232,9.0,20.0,84,0.00,,,0.00,meteohub,2013-04-05 03:39:00,
2013-04-04 23:44:00,39.6,35.4,30.13,WSW,255,12.0,16.0,85,0.00,,,0.00,meteohub,2013-04-05 03:44:00,
2013-04-04 23:49:00,39.7,35.2,30.13,SW,229,9.0,19.0,84,0.00,,,0.00,meteohub,2013-04-05 03:49:00,
2013-04-04 23:54:00,39.7,35.2,30.13,SW,221,11.0,19.0,84,0.00,,,0.00,meteohub,2013-04-05 03:54:00,